sensor_id;sensor_type;location;lat;lon;timestamp;P1;durP1;ratioP1;P2;durP2;ratioP2
20443;SDS011;10381;53.730;10.010;2023-04-10T00:02:59;93.07;;;56.03;;
20443;SDS011;10381;53.730;10.010;2023-04-10T00:07:02;88.43;;;56.88;;
20443;SDS011;10381;53.730;10.010;2023-04-10T00:11:03;89.03;;;57.70;;
20443;SDS011;10381;53.730;10.010;2023-04-10T00:15:03;98.93;;;58.05;;
20443;SDS011;10381;53.730;10.010;2023-04-10T00:19:04;106.60;;;57.45;;
20443;SDS011;10381;53.730;10.010;2023-04-10T00:23:04;87.20;;;55.00;;
20443;SDS011;10381;53.730;10.010;2023-04-10T00:27:05;88.03;;;54.35;;
20443;SDS011;10381;53.730;10.010;2023-04-10T00:31:05;91.70;;;54.63;;
20443;SDS011;10381;53.730;10.010;2023-04-10T00:35:06;96.93;;;55.28;;
20443;SDS011;10381;53.730;10.010;2023-04-10T00:39:07;96.72;;;55.83;;
20443;SDS011;10381;53.730;10.010;2023-04-10T00:43:08;92.13;;;55.92;;
20443;SDS011;10381;53.730;10.010;2023-04-10T00:47:08;87.97;;;53.83;;
20443;SDS011;10381;53.730;10.010;2023-04-10T00:51:08;92.67;;;56.03;;
20443;SDS011;10381;53.730;10.010;2023-04-10T00:55:10;83.40;;;53.72;;
20443;SDS011;10381;53.730;10.010;2023-04-10T00:59:11;83.78;;;52.63;;
20443;SDS011;10381;53.730;10.010;2023-04-10T01:03:11;92.60;;;53.70;;
20443;SDS011;10381;53.730;10.010;2023-04-10T01:11:54;103.15;;;52.67;;
20443;SDS011;10381;53.730;10.010;2023-04-10T01:16:26;95.90;;;53.80;;
20443;SDS011;10381;53.730;10.010;2023-04-10T01:20:30;98.68;;;53.25;;
20443;SDS011;10381;53.730;10.010;2023-04-10T01:24:36;87.60;;;52.50;;
20443;SDS011;10381;53.730;10.010;2023-04-10T01:29:05;101.38;;;54.13;;
20443;SDS011;10381;53.730;10.010;2023-04-10T01:33:16;97.22;;;51.35;;
20443;SDS011;10381;53.730;10.010;2023-04-10T01:37:20;82.03;;;52.13;;
20443;SDS011;10381;53.730;10.010;2023-04-10T01:41:22;105.30;;;53.58;;
20443;SDS011;10381;53.730;10.010;2023-04-10T01:45:27;102.18;;;50.97;;
20443;SDS011;10381;53.730;10.010;2023-04-10T01:49:27;81.47;;;52.20;;
20443;SDS011;10381;53.730;10.010;2023-04-10T01:53:30;82.18;;;49.88;;
20443;SDS011;10381;53.730;10.010;2023-04-10T01:57:31;87.15;;;52.63;;
20443;SDS011;10381;53.730;10.010;2023-04-10T02:01:31;89.43;;;51.72;;
20443;SDS011;10381;53.730;10.010;2023-04-10T02:05:34;90.38;;;50.45;;
20443;SDS011;10381;53.730;10.010;2023-04-10T02:10:07;87.03;;;51.72;;
20443;SDS011;10381;53.730;10.010;2023-04-10T02:14:12;99.13;;;52.05;;
20443;SDS011;10381;53.730;10.010;2023-04-10T02:18:16;92.57;;;52.58;;
20443;SDS011;10381;53.730;10.010;2023-04-10T02:22:18;86.90;;;52.63;;
20443;SDS011;10381;53.730;10.010;2023-04-10T02:26:19;92.22;;;52.13;;
20443;SDS011;10381;53.730;10.010;2023-04-10T02:30:19;100.70;;;54.53;;
20443;SDS011;10381;53.730;10.010;2023-04-10T02:34:20;94.37;;;52.37;;
20443;SDS011;10381;53.730;10.010;2023-04-10T02:38:20;91.30;;;52.07;;
20443;SDS011;10381;53.730;10.010;2023-04-10T02:42:21;98.40;;;51.90;;
20443;SDS011;10381;53.730;10.010;2023-04-10T02:46:21;91.45;;;50.70;;
20443;SDS011;10381;53.730;10.010;2023-04-10T02:50:22;95.18;;;51.30;;
20443;SDS011;10381;53.730;10.010;2023-04-10T02:54:22;97.53;;;53.27;;
20443;SDS011;10381;53.730;10.010;2023-04-10T02:58:22;103.22;;;52.47;;
20443;SDS011;10381;53.730;10.010;2023-04-10T03:02:22;88.18;;;51.08;;
20443;SDS011;10381;53.730;10.010;2023-04-10T03:06:23;100.43;;;54.37;;
20443;SDS011;10381;53.730;10.010;2023-04-10T03:10:26;98.55;;;52.13;;
20443;SDS011;10381;53.730;10.010;2023-04-10T03:14:26;89.47;;;51.77;;
20443;SDS011;10381;53.730;10.010;2023-04-10T03:18:27;105.30;;;52.63;;
20443;SDS011;10381;53.730;10.010;2023-04-10T03:22:27;97.63;;;51.72;;
20443;SDS011;10381;53.730;10.010;2023-04-10T03:26:30;98.43;;;52.45;;
20443;SDS011;10381;53.730;10.010;2023-04-10T03:30:31;90.72;;;50.33;;
20443;SDS011;10381;53.730;10.010;2023-04-10T03:34:31;93.03;;;51.58;;
20443;SDS011;10381;53.730;10.010;2023-04-10T03:38:31;98.90;;;53.50;;
20443;SDS011;10381;53.730;10.010;2023-04-10T03:42:32;104.15;;;52.08;;
20443;SDS011;10381;53.730;10.010;2023-04-10T03:46:32;91.77;;;52.13;;
20443;SDS011;10381;53.730;10.010;2023-04-10T03:50:32;96.63;;;52.30;;
20443;SDS011;10381;53.730;10.010;2023-04-10T03:54:32;104.73;;;53.33;;
20443;SDS011;10381;53.730;10.010;2023-04-10T03:58:33;93.80;;;51.57;;
20443;SDS011;10381;53.730;10.010;2023-04-10T04:02:33;92.00;;;51.45;;
20443;SDS011;10381;53.730;10.010;2023-04-10T04:06:33;96.55;;;53.85;;
20443;SDS011;10381;53.730;10.010;2023-04-10T04:10:34;105.65;;;55.03;;
20443;SDS011;10381;53.730;10.010;2023-04-10T04:14:34;98.45;;;52.45;;
20443;SDS011;10381;53.730;10.010;2023-04-10T04:18:34;95.90;;;50.83;;
20443;SDS011;10381;53.730;10.010;2023-04-10T04:22:35;93.43;;;53.73;;
20443;SDS011;10381;53.730;10.010;2023-04-10T04:26:35;93.63;;;53.07;;
20443;SDS011;10381;53.730;10.010;2023-04-10T04:30:35;91.85;;;54.92;;
20443;SDS011;10381;53.730;10.010;2023-04-10T04:34:36;90.10;;;51.93;;
20443;SDS011;10381;53.730;10.010;2023-04-10T04:38:36;99.37;;;55.30;;
20443;SDS011;10381;53.730;10.010;2023-04-10T04:42:36;101.90;;;55.03;;
20443;SDS011;10381;53.730;10.010;2023-04-10T04:46:36;101.73;;;54.97;;
20443;SDS011;10381;53.730;10.010;2023-04-10T04:50:39;89.97;;;53.73;;
20443;SDS011;10381;53.730;10.010;2023-04-10T04:54:39;99.97;;;52.95;;
20443;SDS011;10381;53.730;10.010;2023-04-10T04:58:40;106.38;;;54.28;;
20443;SDS011;10381;53.730;10.010;2023-04-10T05:02:40;85.57;;;52.87;;
20443;SDS011;10381;53.730;10.010;2023-04-10T05:06:40;94.87;;;53.53;;
20443;SDS011;10381;53.730;10.010;2023-04-10T05:10:40;108.30;;;59.67;;
20443;SDS011;10381;53.730;10.010;2023-04-10T05:14:41;107.63;;;62.80;;
20443;SDS011;10381;53.730;10.010;2023-04-10T05:18:41;100.47;;;60.83;;
20443;SDS011;10381;53.730;10.010;2023-04-10T05:22:42;109.87;;;64.77;;
20443;SDS011;10381;53.730;10.010;2023-04-10T05:26:42;96.72;;;62.72;;
20443;SDS011;10381;53.730;10.010;2023-04-10T05:30:43;108.68;;;68.03;;
20443;SDS011;10381;53.730;10.010;2023-04-10T05:34:43;104.97;;;65.47;;
20443;SDS011;10381;53.730;10.010;2023-04-10T05:38:43;99.00;;;61.80;;
20443;SDS011;10381;53.730;10.010;2023-04-10T05:42:44;101.65;;;61.47;;
20443;SDS011;10381;53.730;10.010;2023-04-10T05:46:44;95.23;;;59.80;;
20443;SDS011;10381;53.730;10.010;2023-04-10T05:50:45;88.72;;;55.05;;
20443;SDS011;10381;53.730;10.010;2023-04-10T05:54:45;91.90;;;51.78;;
20443;SDS011;10381;53.730;10.010;2023-04-10T05:58:45;97.03;;;49.30;;
20443;SDS011;10381;53.730;10.010;2023-04-10T06:02:46;66.37;;;43.70;;
20443;SDS011;10381;53.730;10.010;2023-04-10T06:06:46;73.90;;;42.38;;
20443;SDS011;10381;53.730;10.010;2023-04-10T06:10:46;81.03;;;43.57;;
20443;SDS011;10381;53.730;10.010;2023-04-10T06:14:47;62.28;;;37.40;;
20443;SDS011;10381;53.730;10.010;2023-04-10T06:18:47;64.28;;;37.70;;
20443;SDS011;10381;53.730;10.010;2023-04-10T06:22:50;61.28;;;33.58;;
20443;SDS011;10381;53.730;10.010;2023-04-10T06:26:57;57.40;;;32.78;;
20443;SDS011;10381;53.730;10.010;2023-04-10T06:30:57;56.58;;;30.30;;
20443;SDS011;10381;53.730;10.010;2023-04-10T06:35:02;50.38;;;29.23;;
20443;SDS011;10381;53.730;10.010;2023-04-10T06:39:02;53.50;;;27.00;;
20443;SDS011;10381;53.730;10.010;2023-04-10T06:43:03;52.40;;;28.65;;
20443;SDS011;10381;53.730;10.010;2023-04-10T06:47:03;50.20;;;27.37;;
20443;SDS011;10381;53.730;10.010;2023-04-10T06:51:05;47.67;;;27.27;;
20443;SDS011;10381;53.730;10.010;2023-04-10T06:55:06;59.38;;;27.85;;
20443;SDS011;10381;53.730;10.010;2023-04-10T06:59:06;52.72;;;26.83;;
20443;SDS011;10381;53.730;10.010;2023-04-10T07:03:07;48.30;;;26.83;;
20443;SDS011;10381;53.730;10.010;2023-04-10T07:07:07;45.73;;;26.27;;
20443;SDS011;10381;53.730;10.010;2023-04-10T07:11:08;50.03;;;27.27;;
20443;SDS011;10381;53.730;10.010;2023-04-10T07:15:09;48.43;;;27.40;;
20443;SDS011;10381;53.730;10.010;2023-04-10T07:19:11;49.45;;;26.42;;
20443;SDS011;10381;53.730;10.010;2023-04-10T07:23:11;43.37;;;26.90;;
20443;SDS011;10381;53.730;10.010;2023-04-10T07:27:11;46.57;;;25.20;;
20443;SDS011;10381;53.730;10.010;2023-04-10T07:31:12;47.80;;;28.52;;
20443;SDS011;10381;53.730;10.010;2023-04-10T07:35:12;41.90;;;26.00;;
20443;SDS011;10381;53.730;10.010;2023-04-10T07:39:13;41.43;;;25.43;;
20443;SDS011;10381;53.730;10.010;2023-04-10T07:43:13;45.27;;;25.77;;
20443;SDS011;10381;53.730;10.010;2023-04-10T07:47:13;46.47;;;26.07;;
20443;SDS011;10381;53.730;10.010;2023-04-10T07:51:14;41.70;;;24.27;;
20443;SDS011;10381;53.730;10.010;2023-04-10T07:55:14;46.15;;;25.38;;
20443;SDS011;10381;53.730;10.010;2023-04-10T07:59:15;42.42;;;26.83;;
20443;SDS011;10381;53.730;10.010;2023-04-10T08:03:15;44.03;;;24.60;;
20443;SDS011;10381;53.730;10.010;2023-04-10T08:07:15;38.08;;;23.63;;
20443;SDS011;10381;53.730;10.010;2023-04-10T08:11:21;37.75;;;24.05;;
20443;SDS011;10381;53.730;10.010;2023-04-10T08:15:22;36.78;;;24.27;;
20443;SDS011;10381;53.730;10.010;2023-04-10T08:19:22;42.77;;;23.67;;
20443;SDS011;10381;53.730;10.010;2023-04-10T08:23:22;43.07;;;23.43;;
20443;SDS011;10381;53.730;10.010;2023-04-10T08:27:23;35.25;;;24.23;;
20443;SDS011;10381;53.730;10.010;2023-04-10T08:31:24;36.23;;;23.43;;
20443;SDS011;10381;53.730;10.010;2023-04-10T08:35:26;37.75;;;23.50;;
20443;SDS011;10381;53.730;10.010;2023-04-10T08:39:26;32.17;;;21.77;;
20443;SDS011;10381;53.730;10.010;2023-04-10T08:43:26;35.63;;;19.17;;
20443;SDS011;10381;53.730;10.010;2023-04-10T08:47:27;32.77;;;18.57;;
20443;SDS011;10381;53.730;10.010;2023-04-10T08:51:35;27.77;;;16.92;;
20443;SDS011;10381;53.730;10.010;2023-04-10T08:55:56;27.83;;;17.20;;
20443;SDS011;10381;53.730;10.010;2023-04-10T08:59:58;33.50;;;16.85;;
20443;SDS011;10381;53.730;10.010;2023-04-10T09:03:59;24.73;;;15.10;;
20443;SDS011;10381;53.730;10.010;2023-04-10T09:07:59;33.50;;;15.30;;
20443;SDS011;10381;53.730;10.010;2023-04-10T09:12:00;28.70;;;14.55;;
20443;SDS011;10381;53.730;10.010;2023-04-10T09:16:02;27.13;;;14.85;;
20443;SDS011;10381;53.730;10.010;2023-04-10T09:20:04;25.50;;;14.73;;
20443;SDS011;10381;53.730;10.010;2023-04-10T09:24:20;23.80;;;13.55;;
20443;SDS011;10381;53.730;10.010;2023-04-10T09:28:20;30.80;;;13.80;;
20443;SDS011;10381;53.730;10.010;2023-04-10T09:32:40;19.17;;;12.77;;
20443;SDS011;10381;53.730;10.010;2023-04-10T09:36:42;26.58;;;14.10;;
20443;SDS011;10381;53.730;10.010;2023-04-10T09:41:05;20.70;;;12.55;;
20443;SDS011;10381;53.730;10.010;2023-04-10T09:45:07;20.88;;;13.43;;
20443;SDS011;10381;53.730;10.010;2023-04-10T09:49:07;23.52;;;12.85;;
20443;SDS011;10381;53.730;10.010;2023-04-10T09:53:12;20.90;;;12.98;;
20443;SDS011;10381;53.730;10.010;2023-04-10T09:57:18;19.65;;;12.48;;
20443;SDS011;10381;53.730;10.010;2023-04-10T10:01:23;25.95;;;12.55;;
20443;SDS011;10381;53.730;10.010;2023-04-10T10:05:26;22.05;;;12.40;;
20443;SDS011;10381;53.730;10.010;2023-04-10T10:09:29;19.80;;;11.95;;
20443;SDS011;10381;53.730;10.010;2023-04-10T10:13:32;19.35;;;12.07;;
20443;SDS011;10381;53.730;10.010;2023-04-10T10:22:10;22.35;;;13.13;;
20443;SDS011;10381;53.730;10.010;2023-04-10T10:26:12;21.60;;;12.38;;
20443;SDS011;10381;53.730;10.010;2023-04-10T10:30:13;19.83;;;12.77;;
20443;SDS011;10381;53.730;10.010;2023-04-10T10:34:16;18.58;;;12.68;;
20443;SDS011;10381;53.730;10.010;2023-04-10T10:38:17;21.23;;;12.32;;
20443;SDS011;10381;53.730;10.010;2023-04-10T10:43:02;23.05;;;12.05;;
20443;SDS011;10381;53.730;10.010;2023-04-10T10:46:50;18.88;;;11.38;;
20443;SDS011;10381;53.730;10.010;2023-04-10T10:50:58;20.33;;;12.15;;
20443;SDS011;10381;53.730;10.010;2023-04-10T10:55:14;19.80;;;11.43;;
20443;SDS011;10381;53.730;10.010;2023-04-10T11:03:43;16.23;;;10.93;;
20443;SDS011;10381;53.730;10.010;2023-04-10T11:11:59;20.42;;;11.48;;
20443;SDS011;10381;53.730;10.010;2023-04-10T11:16:00;16.03;;;10.93;;
20443;SDS011;10381;53.730;10.010;2023-04-10T11:20:02;14.02;;;9.55;;
20443;SDS011;10381;53.730;10.010;2023-04-10T11:24:03;14.82;;;9.77;;
20443;SDS011;10381;53.730;10.010;2023-04-10T11:28:04;20.35;;;9.57;;
20443;SDS011;10381;53.730;10.010;2023-04-10T11:32:04;14.95;;;9.43;;
20443;SDS011;10381;53.730;10.010;2023-04-10T11:36:05;16.33;;;10.30;;
20443;SDS011;10381;53.730;10.010;2023-04-10T11:40:06;14.50;;;9.48;;
20443;SDS011;10381;53.730;10.010;2023-04-10T11:44:08;16.60;;;10.57;;
20443;SDS011;10381;53.730;10.010;2023-04-10T11:48:10;16.33;;;10.30;;
20443;SDS011;10381;53.730;10.010;2023-04-10T11:52:10;16.77;;;10.40;;
20443;SDS011;10381;53.730;10.010;2023-04-10T11:56:19;14.73;;;10.20;;
20443;SDS011;10381;53.730;10.010;2023-04-10T12:00:23;14.88;;;10.02;;
20443;SDS011;10381;53.730;10.010;2023-04-10T12:04:24;15.05;;;10.15;;
20443;SDS011;10381;53.730;10.010;2023-04-10T12:08:34;13.30;;;10.07;;
20443;SDS011;10381;53.730;10.010;2023-04-10T12:12:36;13.98;;;9.95;;
20443;SDS011;10381;53.730;10.010;2023-04-10T12:16:36;15.57;;;10.15;;
20443;SDS011;10381;53.730;10.010;2023-04-10T12:20:37;13.52;;;9.57;;
20443;SDS011;10381;53.730;10.010;2023-04-10T12:24:47;11.98;;;8.80;;
20443;SDS011;10381;53.730;10.010;2023-04-10T12:28:52;13.30;;;9.57;;
20443;SDS011;10381;53.730;10.010;2023-04-10T12:32:54;14.55;;;10.18;;
20443;SDS011;10381;53.730;10.010;2023-04-10T12:36:55;15.15;;;9.68;;
20443;SDS011;10381;53.730;10.010;2023-04-10T12:40:57;12.45;;;9.05;;
20443;SDS011;10381;53.730;10.010;2023-04-10T12:44:59;13.05;;;9.05;;
20443;SDS011;10381;53.730;10.010;2023-04-10T12:49:07;12.23;;;9.35;;
20443;SDS011;10381;53.730;10.010;2023-04-10T12:53:13;14.45;;;9.25;;
20443;SDS011;10381;53.730;10.010;2023-04-10T12:57:24;13.37;;;9.07;;
20443;SDS011;10381;53.730;10.010;2023-04-10T13:01:26;12.13;;;8.65;;
20443;SDS011;10381;53.730;10.010;2023-04-10T13:05:26;12.37;;;9.20;;
20443;SDS011;10381;53.730;10.010;2023-04-10T13:09:26;11.33;;;7.93;;
20443;SDS011;10381;53.730;10.010;2023-04-10T13:13:27;12.07;;;8.67;;
20443;SDS011;10381;53.730;10.010;2023-04-10T13:17:29;13.80;;;7.90;;
20443;SDS011;10381;53.730;10.010;2023-04-10T13:21:29;10.27;;;8.43;;
20443;SDS011;10381;53.730;10.010;2023-04-10T13:25:30;11.70;;;8.03;;
20443;SDS011;10381;53.730;10.010;2023-04-10T13:29:37;13.20;;;8.20;;
20443;SDS011;10381;53.730;10.010;2023-04-10T13:33:40;10.35;;;7.57;;
20443;SDS011;10381;53.730;10.010;2023-04-10T13:37:45;23.63;;;14.27;;
20443;SDS011;10381;53.730;10.010;2023-04-10T13:41:46;179.30;;;92.15;;
20443;SDS011;10381;53.730;10.010;2023-04-10T13:45:46;488.67;;;262.80;;
20443;SDS011;10381;53.730;10.010;2023-04-10T13:49:48;350.30;;;185.23;;
20443;SDS011;10381;53.730;10.010;2023-04-10T13:53:49;189.60;;;101.27;;
20443;SDS011;10381;53.730;10.010;2023-04-10T13:57:49;964.67;;;489.45;;
20443;SDS011;10381;53.730;10.010;2023-04-10T14:01:50;1430.93;;;744.90;;
20443;SDS011;10381;53.730;10.010;2023-04-10T14:05:51;419.42;;;219.80;;
20443;SDS011;10381;53.730;10.010;2023-04-10T14:09:52;38.80;;;24.73;;
20443;SDS011;10381;53.730;10.010;2023-04-10T14:13:52;311.80;;;147.83;;
20443;SDS011;10381;53.730;10.010;2023-04-10T14:17:52;18.17;;;12.27;;
20443;SDS011;10381;53.730;10.010;2023-04-10T14:21:52;9.50;;;7.53;;
20443;SDS011;10381;53.730;10.010;2023-04-10T14:25:53;11.30;;;8.67;;
20443;SDS011;10381;53.730;10.010;2023-04-10T14:29:53;11.03;;;8.33;;
20443;SDS011;10381;53.730;10.010;2023-04-10T14:33:54;14.30;;;8.93;;
20443;SDS011;10381;53.730;10.010;2023-04-10T14:37:54;14.60;;;8.30;;
20443;SDS011;10381;53.730;10.010;2023-04-10T14:41:55;12.47;;;8.83;;
20443;SDS011;10381;53.730;10.010;2023-04-10T14:45:56;12.00;;;8.57;;
20443;SDS011;10381;53.730;10.010;2023-04-10T14:49:56;14.83;;;8.93;;
20443;SDS011;10381;53.730;10.010;2023-04-10T14:53:56;16.45;;;9.13;;
20443;SDS011;10381;53.730;10.010;2023-04-10T14:57:57;12.87;;;9.30;;
20443;SDS011;10381;53.730;10.010;2023-04-10T15:01:57;14.40;;;9.07;;
20443;SDS011;10381;53.730;10.010;2023-04-10T15:05:58;15.63;;;9.17;;
20443;SDS011;10381;53.730;10.010;2023-04-10T15:09:59;11.98;;;9.38;;
20443;SDS011;10381;53.730;10.010;2023-04-10T15:13:59;15.77;;;9.30;;
20443;SDS011;10381;53.730;10.010;2023-04-10T15:18:01;13.48;;;8.73;;
20443;SDS011;10381;53.730;10.010;2023-04-10T15:22:01;15.30;;;9.07;;
20443;SDS011;10381;53.730;10.010;2023-04-10T15:26:01;24.33;;;9.03;;
20443;SDS011;10381;53.730;10.010;2023-04-10T15:30:03;23.73;;;9.25;;
20443;SDS011;10381;53.730;10.010;2023-04-10T15:34:03;12.68;;;8.30;;
20443;SDS011;10381;53.730;10.010;2023-04-10T15:38:07;10.70;;;8.13;;
20443;SDS011;10381;53.730;10.010;2023-04-10T15:42:13;13.32;;;7.93;;
20443;SDS011;10381;53.730;10.010;2023-04-10T15:46:27;10.50;;;7.57;;
20443;SDS011;10381;53.730;10.010;2023-04-10T15:50:31;13.85;;;9.13;;
20443;SDS011;10381;53.730;10.010;2023-04-10T15:54:32;13.70;;;9.57;;
20443;SDS011;10381;53.730;10.010;2023-04-10T15:58:33;10.77;;;8.18;;
20443;SDS011;10381;53.730;10.010;2023-04-10T16:02:34;12.18;;;9.05;;
20443;SDS011;10381;53.730;10.010;2023-04-10T16:06:34;9.45;;;7.35;;
20443;SDS011;10381;53.730;10.010;2023-04-10T16:10:35;12.73;;;8.10;;
20443;SDS011;10381;53.730;10.010;2023-04-10T16:14:35;12.27;;;7.40;;
20443;SDS011;10381;53.730;10.010;2023-04-10T16:18:35;10.93;;;7.60;;
20443;SDS011;10381;53.730;10.010;2023-04-10T16:22:35;12.10;;;7.80;;
20443;SDS011;10381;53.730;10.010;2023-04-10T16:26:36;11.82;;;7.32;;
20443;SDS011;10381;53.730;10.010;2023-04-10T16:30:36;10.05;;;7.35;;
20443;SDS011;10381;53.730;10.010;2023-04-10T16:34:38;9.25;;;6.82;;
20443;SDS011;10381;53.730;10.010;2023-04-10T16:38:38;10.68;;;6.68;;
20443;SDS011;10381;53.730;10.010;2023-04-10T16:42:39;11.27;;;6.83;;
20443;SDS011;10381;53.730;10.010;2023-04-10T16:46:39;12.73;;;7.93;;
20443;SDS011;10381;53.730;10.010;2023-04-10T16:50:39;12.47;;;7.40;;
20443;SDS011;10381;53.730;10.010;2023-04-10T16:54:40;12.07;;;7.77;;
20443;SDS011;10381;53.730;10.010;2023-04-10T16:58:40;13.52;;;7.05;;
20443;SDS011;10381;53.730;10.010;2023-04-10T17:02:41;15.25;;;8.13;;
20443;SDS011;10381;53.730;10.010;2023-04-10T17:06:41;13.20;;;7.53;;
20443;SDS011;10381;53.730;10.010;2023-04-10T17:10:42;17.03;;;7.87;;
20443;SDS011;10381;53.730;10.010;2023-04-10T17:14:42;13.57;;;8.75;;
20443;SDS011;10381;53.730;10.010;2023-04-10T17:18:42;12.90;;;8.63;;
20443;SDS011;10381;53.730;10.010;2023-04-10T17:22:43;13.13;;;8.15;;
20443;SDS011;10381;53.730;10.010;2023-04-10T17:26:43;12.77;;;7.93;;
20443;SDS011;10381;53.730;10.010;2023-04-10T17:30:43;19.50;;;8.97;;
20443;SDS011;10381;53.730;10.010;2023-04-10T17:34:44;13.18;;;7.68;;
20443;SDS011;10381;53.730;10.010;2023-04-10T17:38:44;13.57;;;8.73;;
20443;SDS011;10381;53.730;10.010;2023-04-10T17:42:44;14.30;;;8.70;;
20443;SDS011;10381;53.730;10.010;2023-04-10T17:46:45;14.63;;;9.32;;
20443;SDS011;10381;53.730;10.010;2023-04-10T17:50:45;15.48;;;8.68;;
20443;SDS011;10381;53.730;10.010;2023-04-10T17:54:47;12.05;;;8.68;;
20443;SDS011;10381;53.730;10.010;2023-04-10T17:58:47;12.70;;;8.63;;
20443;SDS011;10381;53.730;10.010;2023-04-10T18:02:47;10.93;;;7.90;;
20443;SDS011;10381;53.730;10.010;2023-04-10T18:06:48;11.65;;;8.15;;
20443;SDS011;10381;53.730;10.010;2023-04-10T18:10:48;16.70;;;8.80;;
20443;SDS011;10381;53.730;10.010;2023-04-10T18:14:48;18.87;;;8.17;;
20443;SDS011;10381;53.730;10.010;2023-04-10T18:18:49;11.57;;;8.35;;
20443;SDS011;10381;53.730;10.010;2023-04-10T18:22:49;15.87;;;8.90;;
20443;SDS011;10381;53.730;10.010;2023-04-10T18:26:49;13.83;;;8.70;;
20443;SDS011;10381;53.730;10.010;2023-04-10T18:30:50;16.13;;;8.57;;
20443;SDS011;10381;53.730;10.010;2023-04-10T18:34:53;15.55;;;9.07;;
20443;SDS011;10381;53.730;10.010;2023-04-10T18:38:54;16.67;;;9.37;;
20443;SDS011;10381;53.730;10.010;2023-04-10T18:42:54;17.10;;;9.02;;
20443;SDS011;10381;53.730;10.010;2023-04-10T18:46:54;14.43;;;8.80;;
20443;SDS011;10381;53.730;10.010;2023-04-10T18:50:55;13.93;;;8.10;;
20443;SDS011;10381;53.730;10.010;2023-04-10T18:54:55;14.40;;;8.60;;
20443;SDS011;10381;53.730;10.010;2023-04-10T18:58:56;13.57;;;8.33;;
20443;SDS011;10381;53.730;10.010;2023-04-10T19:02:57;15.38;;;8.85;;
20443;SDS011;10381;53.730;10.010;2023-04-10T19:06:57;12.93;;;8.30;;
20443;SDS011;10381;53.730;10.010;2023-04-10T19:10:58;18.70;;;9.37;;
20443;SDS011;10381;53.730;10.010;2023-04-10T19:14:58;15.33;;;8.17;;
20443;SDS011;10381;53.730;10.010;2023-04-10T19:18:58;16.63;;;9.13;;
20443;SDS011;10381;53.730;10.010;2023-04-10T19:23:00;15.85;;;9.35;;
20443;SDS011;10381;53.730;10.010;2023-04-10T19:27:00;17.07;;;10.07;;
20443;SDS011;10381;53.730;10.010;2023-04-10T19:31:01;17.10;;;9.68;;
20443;SDS011;10381;53.730;10.010;2023-04-10T19:35:01;13.30;;;8.80;;
20443;SDS011;10381;53.730;10.010;2023-04-10T19:39:02;16.40;;;10.38;;
20443;SDS011;10381;53.730;10.010;2023-04-10T19:43:03;15.77;;;9.55;;
20443;SDS011;10381;53.730;10.010;2023-04-10T19:47:04;16.52;;;9.80;;
20443;SDS011;10381;53.730;10.010;2023-04-10T19:51:04;14.48;;;9.48;;
20443;SDS011;10381;53.730;10.010;2023-04-10T19:55:05;20.05;;;10.77;;
20443;SDS011;10381;53.730;10.010;2023-04-10T19:59:05;19.38;;;10.65;;
20443;SDS011;10381;53.730;10.010;2023-04-10T20:03:06;19.03;;;10.23;;
20443;SDS011;10381;53.730;10.010;2023-04-10T20:07:06;19.55;;;10.18;;
20443;SDS011;10381;53.730;10.010;2023-04-10T20:11:06;18.63;;;10.40;;
20443;SDS011;10381;53.730;10.010;2023-04-10T20:15:08;25.83;;;10.50;;
20443;SDS011;10381;53.730;10.010;2023-04-10T20:19:09;17.70;;;9.85;;
20443;SDS011;10381;53.730;10.010;2023-04-10T20:23:09;18.07;;;10.50;;
20443;SDS011;10381;53.730;10.010;2023-04-10T20:27:12;18.45;;;10.45;;
20443;SDS011;10381;53.730;10.010;2023-04-10T20:31:13;20.27;;;10.10;;
20443;SDS011;10381;53.730;10.010;2023-04-10T20:35:14;20.48;;;10.32;;
20443;SDS011;10381;53.730;10.010;2023-04-10T20:39:14;17.43;;;10.67;;
20443;SDS011;10381;53.730;10.010;2023-04-10T20:43:15;14.65;;;9.63;;
20443;SDS011;10381;53.730;10.010;2023-04-10T20:47:17;14.38;;;10.00;;
20443;SDS011;10381;53.730;10.010;2023-04-10T20:51:17;12.97;;;8.83;;
20443;SDS011;10381;53.730;10.010;2023-04-10T20:55:18;17.17;;;9.83;;
20443;SDS011;10381;53.730;10.010;2023-04-10T20:59:18;15.27;;;9.43;;
20443;SDS011;10381;53.730;10.010;2023-04-10T21:03:18;20.90;;;11.73;;
20443;SDS011;10381;53.730;10.010;2023-04-10T21:07:19;18.35;;;10.82;;
20443;SDS011;10381;53.730;10.010;2023-04-10T21:11:19;21.63;;;13.17;;
20443;SDS011;10381;53.730;10.010;2023-04-10T21:15:21;19.98;;;10.63;;
20443;SDS011;10381;53.730;10.010;2023-04-10T21:19:21;28.70;;;10.25;;
20443;SDS011;10381;53.730;10.010;2023-04-10T21:23:21;18.17;;;9.80;;
20443;SDS011;10381;53.730;10.010;2023-04-10T21:27:21;15.53;;;9.70;;
20443;SDS011;10381;53.730;10.010;2023-04-10T21:31:22;16.02;;;9.40;;
20443;SDS011;10381;53.730;10.010;2023-04-10T21:35:22;12.73;;;8.77;;
20443;SDS011;10381;53.730;10.010;2023-04-10T21:39:23;19.25;;;9.73;;
20443;SDS011;10381;53.730;10.010;2023-04-10T21:43:24;18.08;;;9.55;;
20443;SDS011;10381;53.730;10.010;2023-04-10T21:47:24;13.18;;;8.85;;
20443;SDS011;10381;53.730;10.010;2023-04-10T21:51:24;12.10;;;8.50;;
20443;SDS011;10381;53.730;10.010;2023-04-10T21:55:26;13.63;;;9.07;;
20443;SDS011;10381;53.730;10.010;2023-04-10T21:59:26;16.80;;;8.47;;
20443;SDS011;10381;53.730;10.010;2023-04-10T22:03:27;12.33;;;8.70;;
20443;SDS011;10381;53.730;10.010;2023-04-10T22:07:27;10.45;;;8.80;;
20443;SDS011;10381;53.730;10.010;2023-04-10T22:11:27;16.07;;;9.13;;
20443;SDS011;10381;53.730;10.010;2023-04-10T22:15:27;11.67;;;10.27;;
20443;SDS011;10381;53.730;10.010;2023-04-10T22:19:28;13.70;;;12.30;;
20443;SDS011;10381;53.730;10.010;2023-04-10T22:23:28;13.73;;;12.33;;
20443;SDS011;10381;53.730;10.010;2023-04-10T22:27:28;15.20;;;13.70;;
20443;SDS011;10381;53.730;10.010;2023-04-10T22:31:29;19.00;;;17.05;;
20443;SDS011;10381;53.730;10.010;2023-04-10T22:35:29;21.77;;;18.90;;
20443;SDS011;10381;53.730;10.010;2023-04-10T22:39:29;22.85;;;20.45;;
20443;SDS011;10381;53.730;10.010;2023-04-10T22:43:29;27.57;;;22.63;;
20443;SDS011;10381;53.730;10.010;2023-04-10T22:47:30;28.00;;;25.13;;
20443;SDS011;10381;53.730;10.010;2023-04-10T22:51:30;33.67;;;30.20;;
20443;SDS011;10381;53.730;10.010;2023-04-10T22:55:31;46.45;;;42.05;;
20443;SDS011;10381;53.730;10.010;2023-04-10T22:59:31;82.37;;;74.77;;
20443;SDS011;10381;53.730;10.010;2023-04-10T23:03:31;125.13;;;114.03;;
20443;SDS011;10381;53.730;10.010;2023-04-10T23:07:31;198.13;;;180.33;;
20443;SDS011;10381;53.730;10.010;2023-04-10T23:11:32;220.60;;;200.67;;
20443;SDS011;10381;53.730;10.010;2023-04-10T23:15:32;258.38;;;235.18;;
20443;SDS011;10381;53.730;10.010;2023-04-10T23:19:32;303.83;;;276.33;;
20443;SDS011;10381;53.730;10.010;2023-04-10T23:23:33;329.37;;;299.10;;
20443;SDS011;10381;53.730;10.010;2023-04-10T23:27:33;375.95;;;340.67;;
20443;SDS011;10381;53.730;10.010;2023-04-10T23:31:34;404.98;;;366.58;;
20443;SDS011;10381;53.730;10.010;2023-04-10T23:35:34;416.90;;;377.43;;